Time;durP1;ratioP1;P1;durP2;ratioP2;P2;SDS_P1;SDS_P2;PMS_P1;PMS_P2;Temp;Humidity;BMP_temperature;BMP_pressure;BME280_temperature;BME280_humidity;BME280_pressure;Samples;Min_cycle;Max_cycle;Signal;HPM_P1;HPM_P2
2022/10/09 00:00:29;;;;;;;10.02;8.48;;;;;;;22.60;44.85;95283.47;5040915;28;20111;-65
2022/10/09 00:02:55;;;;;;;11.07;8.40;;;;;;;22.79;44.96;95308.94;5043233;28;20122;-65
2022/10/09 00:05:22;;;;;;;11.00;8.93;;;;;;;22.77;44.84;95314.13;5026573;28;20033;-64
2022/10/09 00:07:48;;;;;;;11.82;9.10;;;;;;;22.24;44.53;95235.53;5026634;28;20045;-65
2022/10/09 00:10:13;;;;;;;10.90;8.43;;;;;;;22.44;44.91;95265.19;5030350;28;20372;-65
2022/10/09 00:12:39;;;;;;;10.07;8.57;;;;;;;22.58;44.59;95291.38;5037822;28;20028;-65
2022/10/09 00:15:05;;;;;;;10.52;8.48;;;;;;;22.76;44.45;95301.75;5045595;28;20107;-63
2022/10/09 00:17:30;;;;;;;10.52;8.40;;;;;;;22.07;44.86;95210.28;5026829;28;20049;-65
2022/10/09 00:19:55;;;;;;;10.25;8.00;;;;;;;22.75;44.93;95311.16;5026820;28;20049;-63
2022/10/09 00:22:21;;;;;;;11.13;8.68;;;;;;;21.84;44.72;95180.13;5035707;28;20053;-65
2022/10/09 00:24:46;;;;;;;9.60;7.70;;;;;;;22.60;44.55;95292.38;5026876;28;20033;-65
2022/10/09 00:27:12;;;;;;;10.57;7.95;;;;;;;22.14;44.63;95215.22;5025428;28;20558;-65
2022/10/09 00:29:37;;;;;;;10.15;8.38;;;;;;;22.05;44.99;95201.88;5036556;28;20365;-66
2022/10/09 00:32:02;;;;;;;10.32;8.20;;;;;;;22.04;44.73;95200.41;5034968;28;20052;-65
2022/10/09 00:34:28;;;;;;;10.13;8.23;;;;;;;22.58;44.95;95275.06;5028964;28;20033;-65
2022/10/09 00:36:53;;;;;;;11.18;7.97;;;;;;;22.23;44.69;95212.28;5026416;28;20032;-64
2022/10/09 00:39:19;;;;;;;12.52;8.90;;;;;;;21.98;44.94;95196.19;5026839;28;20492;-65
2022/10/09 00:41:44;;;;;;;10.70;7.93;;;;;;;22.57;44.97;95268.13;5027620;28;20513;-65
2022/10/09 00:44:47;;;;;;;10.68;8.10;;;;;;;22.68;45.02;95273.56;5033057;28;20500;-65
2022/10/09 00:47:30;;;;;;;9.57;7.72;;;;;;;22.53;44.82;95262.22;5037019;28;20040;-65
2022/10/09 00:49:59;;;;;;;9.82;7.50;;;;;;;22.05;44.97;95196.44;5037293;28;20034;-64
2022/10/09 00:52:24;;;;;;;8.95;7.65;;;;;;;21.60;44.62;95118.13;5053196;28;20045;-65
2022/10/09 00:54:50;;;;;;;9.68;7.60;;;;;;;22.15;44.66;95199.66;5067199;28;20032;-64
2022/10/09 00:57:15;;;;;;;9.18;7.15;;;;;;;21.91;44.84;95157.91;5026239;28;20571;-65
2022/10/09 00:59:41;;;;;;;9.88;8.07;;;;;;;21.87;44.97;95163.59;5033825;28;20056;-65
2022/10/09 01:02:06;;;;;;;9.70;7.53;;;;;;;22.64;44.91;95262.19;5035132;28;20045;-65
2022/10/09 01:04:32;;;;;;;9.80;8.02;;;;;;;22.26;44.86;95205.13;5049204;28;20097;-64
2022/10/09 01:07:22;;;;;;;8.40;7.07;;;;;;;22.61;44.82;95261.19;5028197;28;20030;-64
2022/10/09 01:10:02;;;;;;;11.10;7.78;;;;;;;22.62;45.12;95264.66;5033210;28;20166;-65
2022/10/09 01:12:46;;;;;;;9.63;7.60;;;;;;;22.61;44.91;95258.47;5037461;28;20052;-64
2022/10/09 01:15:22;;;;;;;10.07;7.10;;;;;;;22.51;45.04;95253.78;5044795;28;20083;-64
2022/10/09 01:17:58;;;;;;;9.30;6.95;;;;;;;22.57;44.94;95262.69;5029716;28;20432;-65
2022/10/09 01:20:45;;;;;;;8.73;6.85;;;;;;;22.11;44.85;95194.47;5030305;28;20045;-65
2022/10/09 01:23:49;;;;;;;8.13;6.82;;;;;;;22.60;44.89;95267.88;5029429;28;20045;-64
2022/10/09 01:26:15;;;;;;;8.38;7.00;;;;;;;22.60;45.23;95267.13;5037434;28;20099;-65
2022/10/09 01:28:54;;;;;;;8.60;7.20;;;;;;;22.37;44.98;95260.25;5036228;28;20143;-64
2022/10/09 01:31:20;;;;;;;9.32;7.10;;;;;;;22.28;44.93;95241.44;5050932;28;20114;-64
2022/10/09 01:33:45;;;;;;;7.63;6.55;;;;;;;22.08;44.97;95203.63;5030425;28;20024;-65
2022/10/09 01:36:11;;;;;;;8.40;6.47;;;;;;;22.57;45.18;95268.88;5043424;28;20041;-66
2022/10/09 01:38:36;;;;;;;8.63;6.95;;;;;;;22.43;45.25;95267.19;5034264;28;20482;-64
2022/10/09 01:41:02;;;;;;;9.73;6.93;;;;;;;22.40;45.34;95264.69;5034105;28;20067;-64
2022/10/09 01:43:27;;;;;;;9.35;7.10;;;;;;;22.02;45.23;95191.28;5031387;28;20037;-66
2022/10/09 01:46:22;;;;;;;9.10;7.05;;;;;;;22.56;45.12;95263.94;5049864;28;20731;-65
2022/10/09 01:48:57;;;;;;;9.07;7.13;;;;;;;22.43;45.47;95247.38;5041857;28;20024;-66
2022/10/09 01:51:24;;;;;;;8.07;6.43;;;;;;;22.33;45.21;95243.44;5007660;28;20539;-65
2022/10/09 01:53:50;;;;;;;7.85;6.50;;;;;;;22.53;45.24;95273.09;5007498;28;20053;-66
2022/10/09 01:56:17;;;;;;;8.52;6.78;;;;;;;22.41;45.34;95249.84;5015817;28;20068;-66
2022/10/09 01:58:44;;;;;;;8.70;7.03;;;;;;;22.43;45.17;95291.66;5016497;28;20876;-64
2022/10/09 02:01:16;;;;;;;8.95;6.80;;;;;;;22.02;44.96;95192.00;5037635;28;20504;-64
2022/10/09 02:03:44;;;;;;;8.10;6.55;;;;;;;22.32;45.06;95247.38;5035803;28;20574;-65
2022/10/09 02:06:10;;;;;;;8.55;6.50;;;;;;;22.49;45.01;95272.59;5026535;28;20059;-65
2022/10/09 02:08:36;;;;;;;8.63;6.15;;;;;;;22.28;45.32;95255.06;5023328;28;20516;-65
2022/10/09 02:11:02;;;;;;;8.23;6.60;;;;;;;22.40;45.41;95259.25;5023049;28;20044;-65
2022/10/09 02:13:28;;;;;;;8.88;6.85;;;;;;;22.19;45.12;95249.84;5027383;28;20571;-65
2022/10/09 02:16:20;;;;;;;8.55;6.38;;;;;;;22.22;45.02;95243.44;5031490;28;20124;-65
2022/10/09 02:18:48;;;;;;;7.13;6.05;;;;;;;21.41;45.32;95127.25;5031053;28;20472;-64
2022/10/09 02:21:16;;;;;;;7.03;6.15;;;;;;;21.95;45.29;95197.94;5042307;28;20033;-65
2022/10/09 02:23:41;;;;;;;7.20;6.07;;;;;;;22.13;45.29;95240.94;5026121;28;20053;-64
2022/10/09 02:26:08;;;;;;;7.07;6.00;;;;;;;22.44;45.46;95286.97;5042190;28;20523;-65
2022/10/09 02:28:33;;;;;;;7.82;6.30;;;;;;;21.97;45.38;95222.66;5055795;28;20121;-64
2022/10/09 02:31:21;;;;;;;7.20;6.00;;;;;;;21.44;44.99;95137.13;5035433;28;20024;-64
2022/10/09 02:34:11;;;;;;;7.50;6.38;;;;;;;22.34;45.55;95282.25;5030428;28;20130;-64
2022/10/09 02:36:37;;;;;;;7.13;5.85;;;;;;;22.49;44.78;95321.59;5042615;28;20053;-65
2022/10/09 02:39:02;;;;;;;8.30;6.53;;;;;;;21.79;45.35;95194.47;5042248;28;20059;-65
2022/10/09 02:41:28;;;;;;;7.60;5.95;;;;;;;22.27;45.49;95272.63;5049795;28;20128;-65
2022/10/09 02:43:53;;;;;;;7.55;5.53;;;;;;;21.97;45.38;95227.34;5025573;28;20061;-65
2022/10/09 02:46:19;;;;;;;7.43;5.57;;;;;;;22.03;45.33;95237.00;5022587;28;20038;-65
2022/10/09 02:48:44;;;;;;;7.25;5.75;;;;;;;21.43;45.34;95143.78;5024101;28;20034;-65
2022/10/09 02:51:10;;;;;;;7.85;6.13;;;;;;;21.70;45.60;95183.84;5041607;28;20496;-64
2022/10/09 02:53:35;;;;;;;6.75;5.80;;;;;;;21.68;45.09;95194.47;5029987;28;20113;-65
2022/10/09 02:56:01;;;;;;;6.78;6.00;;;;;;;21.84;45.09;95204.59;5037881;28;20049;-64
2022/10/09 02:58:29;;;;;;;6.60;5.78;;;;;;;22.25;45.25;95285.97;5032683;28;20111;-64
2022/10/09 03:00:54;;;;;;;6.85;5.72;;;;;;;21.91;45.16;95217.72;5037384;28;20091;-65
2022/10/09 03:03:20;;;;;;;6.22;5.45;;;;;;;21.60;45.04;95188.06;5024929;28;20030;-64
2022/10/09 03:05:45;;;;;;;6.78;5.88;;;;;;;21.56;45.39;95163.81;5022865;28;20046;-65
2022/10/09 03:08:11;;;;;;;7.97;6.00;;;;;;;21.63;45.39;95192.50;5040280;28;20474;-66
2022/10/09 03:10:37;;;;;;;6.78;5.53;;;;;;;22.28;45.19;95276.81;5034930;28;20044;-65
2022/10/09 03:13:03;;;;;;;6.25;5.32;;;;;;;22.25;45.37;95280.53;5040586;28;20025;-66
2022/10/09 03:15:28;;;;;;;7.00;5.50;;;;;;;22.15;45.37;95276.56;5023840;28;20100;-65
2022/10/09 03:17:54;;;;;;;6.72;5.65;;;;;;;22.15;45.50;95271.13;5022083;28;20059;-66
2022/10/09 03:20:20;;;;;;;6.88;5.28;;;;;;;21.59;45.04;95192.00;5021663;28;20070;-66
2022/10/09 03:22:45;;;;;;;7.82;5.72;;;;;;;22.29;45.40;95297.34;5039956;28;20117;-66
2022/10/09 03:25:10;;;;;;;6.18;4.82;;;;;;;22.40;45.20;95316.38;5025088;28;20041;-63
2022/10/09 03:27:36;;;;;;;6.82;5.35;;;;;;;21.43;45.18;95179.09;5031328;28;20038;-63
2022/10/09 03:30:02;;;;;;;7.63;5.47;;;;;;;21.58;45.51;95201.38;5047919;28;20037;-67
2022/10/09 03:32:27;;;;;;;6.93;5.57;;;;;;;21.67;45.52;95206.56;5032195;28;20053;-66
2022/10/09 03:34:53;;;;;;;6.95;5.60;;;;;;;21.41;45.20;95187.00;5030372;28;20034;-65
2022/10/09 03:37:18;;;;;;;6.25;5.07;;;;;;;22.25;45.51;95294.13;5022967;28;20103;-65
2022/10/09 03:39:43;;;;;;;7.03;5.18;;;;;;;22.29;45.30;95313.69;5023773;28;20034;-65
2022/10/09 03:42:09;;;;;;;5.95;5.10;;;;;;;21.79;45.25;95243.41;5032982;28;20038;-66
2022/10/09 03:44:34;;;;;;;6.47;5.10;;;;;;;21.74;45.58;95230.56;5038217;28;20106;-65
2022/10/09 03:47:00;;;;;;;6.85;5.80;;;;;;;21.94;45.42;95255.53;5040189;28;20045;-64
2022/10/09 03:49:25;;;;;;;6.38;5.07;;;;;;;21.74;45.40;95233.28;5022608;28;20138;-65
2022/10/09 03:51:50;;;;;;;7.38;5.00;;;;;;;21.65;45.53;95219.91;5033876;28;20036;-64
2022/10/09 03:54:16;;;;;;;5.13;4.38;;;;;;;22.37;45.60;95341.88;5023930;28;20029;-64
2022/10/09 03:56:41;;;;;;;5.70;4.72;;;;;;;21.29;45.30;95163.78;5033204;28;20044;-64
2022/10/09 03:59:08;;;;;;;6.50;4.70;;;;;;;21.63;45.49;95211.53;5033551;28;20714;-66
2022/10/09 04:01:34;;;;;;;5.95;5.18;;;;;;;21.34;45.37;95165.03;5034046;28;20124;-64
2022/10/09 04:03:59;;;;;;;5.93;4.57;;;;;;;22.29;45.66;95327.28;5024763;28;20128;-65
2022/10/09 04:06:25;;;;;;;5.78;4.63;;;;;;;21.78;45.18;95228.31;5024846;28;20123;-64
2022/10/09 04:08:50;;;;;;;5.25;4.70;;;;;;;21.95;45.24;95268.63;5023165;28;20503;-64
2022/10/09 04:11:16;;;;;;;5.88;4.68;;;;;;;22.36;45.54;95329.50;5054521;28;20338;-64
2022/10/09 04:13:41;;;;;;;6.38;4.97;;;;;;;21.31;45.52;95166.72;5022931;28;20080;-64
2022/10/09 04:16:11;;;;;;;5.20;4.63;;;;;;;22.17;45.50;95304.00;5030608;28;20029;-64
2022/10/09 04:18:38;;;;;;;5.32;4.57;;;;;;;22.06;45.49;95295.84;5036181;28;20028;-64
2022/10/09 04:21:03;;;;;;;5.88;4.75;;;;;;;22.33;45.17;95330.50;5049160;28;20036;-64
2022/10/09 04:23:29;;;;;;;5.95;4.90;;;;;;;21.47;45.48;95198.66;5028042;28;20041;-64
2022/10/09 04:25:55;;;;;;;5.63;4.65;;;;;;;21.68;45.28;95232.53;5026511;28;20034;-65
2022/10/09 04:28:22;;;;;;;5.93;4.57;;;;;;;22.09;45.35;95300.28;5029366;28;20219;-64
2022/10/09 04:30:47;;;;;;;5.00;4.50;;;;;;;21.65;45.75;95287.88;5031638;28;20094;-63
2022/10/09 04:33:13;;;;;;;5.47;4.50;;;;;;;22.22;45.49;95311.44;5039330;28;20041;-66
2022/10/09 04:35:42;;;;;;;7.00;4.95;;;;;;;22.22;45.79;95330.47;5041747;28;20108;-65
2022/10/09 04:38:08;;;;;;;5.53;4.47;;;;;;;22.14;45.75;95318.59;5034699;28;20040;-65
2022/10/09 04:40:33;;;;;;;5.47;4.45;;;;;;;22.32;45.71;95334.44;5041263;28;20053;-64
2022/10/09 04:42:58;;;;;;;5.10;4.30;;;;;;;22.21;45.31;95334.44;5030869;28;20140;-64
2022/10/09 04:45:24;;;;;;;5.90;4.70;;;;;;;22.30;45.45;95334.22;5026686;28;20030;-65
2022/10/09 04:47:49;;;;;;;4.90;4.38;;;;;;;22.00;45.66;95314.13;5026663;28;20041;-65
2022/10/09 04:50:15;;;;;;;6.22;4.75;;;;;;;22.35;45.69;95333.47;5026189;28;20496;-63
2022/10/09 04:52:40;;;;;;;5.57;4.05;;;;;;;21.52;45.57;95209.53;5031230;28;20071;-63
2022/10/09 04:55:06;;;;;;;5.35;4.47;;;;;;;22.29;46.04;95332.72;5025438;28;20512;-65
2022/10/09 04:57:32;;;;;;;5.10;4.50;;;;;;;22.11;45.67;95305.97;5028901;28;20401;-64
2022/10/09 04:59:57;;;;;;;4.78;4.18;;;;;;;21.62;45.64;95237.22;5032070;28;20523;-63
2022/10/09 05:02:23;;;;;;;5.28;4.35;;;;;;;21.45;46.02;95217.41;5045580;28;20717;-63
2022/10/09 05:04:48;;;;;;;5.22;4.20;;;;;;;22.43;46.20;95348.06;5045611;28;20585;-62
2022/10/09 05:07:13;;;;;;;4.90;4.40;;;;;;;22.44;46.34;95352.25;5044800;28;20045;-63
2022/10/09 05:09:39;;;;;;;4.70;3.97;;;;;;;21.89;45.99;95266.41;5040951;28;20032;-64
2022/10/09 05:12:04;;;;;;;10.35;4.00;;;;;;;22.44;46.32;95353.00;5039758;28;20099;-64
2022/10/09 05:14:30;;;;;;;4.95;4.07;;;;;;;21.79;46.03;95273.31;5045716;28;20071;-63
2022/10/09 05:17:01;;;;;;;5.80;4.47;;;;;;;22.40;46.51;95362.66;5045597;28;20060;-65
2022/10/09 05:19:27;;;;;;;5.25;4.25;;;;;;;22.45;46.42;95364.63;5036750;28;20046;-62
2022/10/09 05:21:52;;;;;;;5.20;4.50;;;;;;;22.12;46.50;95326.50;5038862;28;20032;-64
2022/10/09 05:24:18;;;;;;;5.03;4.07;;;;;;;22.45;46.24;95359.19;5046066;28;20098;-64
2022/10/09 05:26:43;;;;;;;4.60;4.00;;;;;;;21.37;46.20;95219.09;5045141;28;20397;-64
2022/10/09 05:29:09;;;;;;;5.03;4.05;;;;;;;21.45;46.31;95220.13;5024356;28;20041;-62
2022/10/09 05:31:34;;;;;;;4.70;3.70;;;;;;;21.42;46.40;95212.94;5034209;28;20044;-63
2022/10/09 05:34:00;;;;;;;4.43;4.03;;;;;;;22.42;46.05;95376.53;5041405;28;20025;-62
2022/10/09 05:36:26;;;;;;;5.45;4.25;;;;;;;21.71;46.28;95275.03;5024425;28;20037;-64
2022/10/09 05:38:51;;;;;;;4.80;4.10;;;;;;;20.95;46.20;95155.31;5035274;28;20037;-63
2022/10/09 05:41:18;;;;;;;4.97;4.07;;;;;;;22.01;45.95;95304.72;5041848;28;20041;-63
2022/10/09 05:43:44;;;;;;;4.72;3.83;;;;;;;22.07;46.02;95305.47;5040447;28;20489;-66
2022/10/09 05:46:14;;;;;;;5.10;4.10;;;;;;;22.08;46.13;95304.25;5039988;28;21183;-64
2022/10/09 05:48:40;;;;;;;5.50;4.15;;;;;;;22.18;45.63;95308.22;5025801;28;20025;-67
2022/10/09 05:51:10;;;;;;;4.47;3.92;;;;;;;22.83;45.70;95372.78;5027693;28;20051;-64
2022/10/09 05:53:36;;;;;;;;;;;;;;;22.81;45.81;95377.22;5026237;28;20096;-65
2022/10/09 05:56:15;;;;;;;5.88;4.18;;;;;;;21.77;45.68;95218.69;5029060;28;20407;-64
2022/10/09 05:58:41;;;;;;;4.80;3.80;;;;;;;21.72;45.51;95211.25;5024431;28;20555;-64
2022/10/09 06:01:07;;;;;;;4.60;3.85;;;;;;;22.14;45.50;95275.06;5043673;28;20076;-63
2022/10/09 06:03:34;;;;;;;4.50;3.85;;;;;;;22.68;45.53;95360.69;5025523;28;20091;-64
2022/10/09 06:06:01;;;;;;;4.32;3.90;;;;;;;22.96;45.74;95398.31;5041252;28;20060;-64
2022/10/09 06:08:26;;;;;;;4.75;4.05;;;;;;;22.44;45.03;95319.63;5043359;28;20048;-63
2022/10/09 06:10:52;;;;;;;5.13;3.90;;;;;;;22.33;45.21;95303.28;5044596;28;20472;-65
2022/10/09 06:13:17;;;;;;;4.45;3.90;;;;;;;22.45;44.76;95321.06;5037713;28;20037;-64
2022/10/09 06:15:55;;;;;;;5.70;3.55;;;;;;;22.33;44.97;95292.41;5028372;28;20034;-68
2022/10/09 06:18:20;;;;;;;5.13;3.88;;;;;;;23.00;44.54;95415.16;5054341;28;20037;-65
2022/10/09 06:20:55;;;;;;;5.88;4.00;;;;;;;22.42;44.95;95301.06;5024501;28;20043;-64
2022/10/09 06:23:21;;;;;;;5.28;3.95;;;;;;;22.67;44.76;95348.28;5022885;28;20034;-64
2022/10/09 06:25:55;;;;;;;4.88;3.80;;;;;;;22.88;44.37;95368.56;5023478;28;20030;-67
2022/10/09 06:28:20;;;;;;;4.78;3.60;;;;;;;22.29;44.36;95259.25;5024060;28;20116;-63
2022/10/09 06:30:46;;;;;;;4.75;3.53;;;;;;;23.06;45.10;95375.03;5027242;28;20105;-66
2022/10/09 06:33:11;;;;;;;4.32;3.55;;;;;;;22.67;43.90;95294.59;5035177;28;20439;-65
2022/10/09 06:35:36;;;;;;;4.65;3.80;;;;;;;22.97;44.39;95350.78;5035025;28;20033;-64
2022/10/09 06:38:02;;;;;;;5.43;3.63;;;;;;;23.53;44.18;95428.41;5021997;28;20091;-63
2022/10/09 06:40:27;;;;;;;5.95;3.78;;;;;;;22.56;43.90;95266.66;5025950;28;20045;-63
2022/10/09 06:42:53;;;;;;;4.93;3.63;;;;;;;23.33;44.20;95379.63;5038034;28;20036;-62
2022/10/09 06:45:18;;;;;;;4.80;4.03;;;;;;;23.11;44.25;95360.63;5025429;28;20164;-65
2022/10/09 06:47:44;;;;;;;4.53;3.70;;;;;;;23.52;44.16;95419.47;5026128;28;20080;-64
2022/10/09 06:50:10;;;;;;;5.43;3.90;;;;;;;23.79;44.13;95456.13;5027606;28;20037;-63
2022/10/09 06:52:36;;;;;;;5.57;3.92;;;;;;;23.64;43.89;95428.41;5031632;28;20573;-61
2022/10/09 06:55:01;;;;;;;5.07;3.65;;;;;;;23.66;44.13;95425.91;5025309;28;20036;-62
2022/10/09 06:57:27;;;;;;;4.85;3.60;;;;;;;23.14;43.84;95343.28;5025255;28;20033;-61
2022/10/09 06:59:52;;;;;;;5.20;4.20;;;;;;;23.00;43.62;95322.53;5029481;28;20049;-61
2022/10/09 07:02:17;;;;;;;4.03;3.53;;;;;;;23.77;44.04;95425.91;5033248;28;20092;-61
2022/10/09 07:04:43;;;;;;;4.70;3.60;;;;;;;23.74;43.87;95421.44;5024369;28;20084;-61
2022/10/09 07:07:08;;;;;;;4.20;3.50;;;;;;;23.80;43.57;95425.63;5025257;28;20049;-62
2022/10/09 07:09:34;;;;;;;4.55;3.70;;;;;;;23.13;43.81;95333.63;5029914;28;20048;-63
2022/10/09 07:11:59;;;;;;;4.60;3.58;;;;;;;23.18;43.68;95343.03;5029378;28;20072;-63
2022/10/09 07:14:25;;;;;;;5.05;4.07;;;;;;;23.83;43.76;95437.53;5023386;28;20044;-64
2022/10/09 07:16:50;;;;;;;5.13;4.35;;;;;;;23.82;44.05;95433.31;5038550;28;20511;-63
2022/10/09 07:19:16;;;;;;;4.72;3.85;;;;;;;22.87;43.60;95275.25;5027980;28;20045;-64
2022/10/09 07:21:42;;;;;;;4.65;4.15;;;;;;;23.36;43.11;95364.28;5030030;28;20029;-66
2022/10/09 07:24:08;;;;;;;4.93;3.70;;;;;;;23.77;43.60;95415.72;5041095;28;20036;-65
2022/10/09 07:26:35;;;;;;;5.05;3.83;;;;;;;23.74;43.65;95432.34;5036027;28;20053;-65
2022/10/09 07:29:00;;;;;;;5.45;3.90;;;;;;;23.87;43.26;95442.22;5032709;28;20101;-63
2022/10/09 07:31:26;;;;;;;5.80;4.38;;;;;;;23.15;43.42;95338.56;5027540;28;20056;-65
2022/10/09 07:33:52;;;;;;;5.55;3.80;;;;;;;23.20;43.28;95346.75;5038877;28;20110;-64
2022/10/09 07:36:18;;;;;;;4.57;4.10;;;;;;;23.55;43.53;95398.66;5028029;28;20030;-64
2022/10/09 07:38:43;;;;;;;6.40;3.90;;;;;;;23.20;43.20;95346.75;5032110;28;20045;-64
2022/10/09 07:41:10;;;;;;;5.22;3.75;;;;;;;23.14;43.58;95348.75;5031506;28;20579;-64
2022/10/09 07:43:36;;;;;;;5.65;4.00;;;;;;;23.35;43.35;95374.44;5022441;28;20033;-63
2022/10/09 07:46:02;;;;;;;5.68;3.80;;;;;;;23.33;43.12;95368.00;5036391;28;20052;-65
2022/10/09 07:48:28;;;;;;;4.68;3.80;;;;;;;23.58;43.33;95403.13;5023733;28;20018;-66
2022/10/09 07:50:54;;;;;;;4.40;3.53;;;;;;;23.52;42.91;95377.84;5024466;28;20041;-66
2022/10/09 07:53:19;;;;;;;4.80;4.03;;;;;;;23.34;43.38;95356.59;5045571;28;20392;-63
2022/10/09 07:55:46;;;;;;;4.97;3.72;;;;;;;23.83;43.27;95429.34;5041688;28;20043;-64
2022/10/09 07:58:12;;;;;;;5.25;3.72;;;;;;;23.30;43.38;95345.22;5070602;28;20048;-65
2022/10/09 08:00:37;;;;;;;4.75;3.88;;;;;;;24.02;43.52;95448.09;5054721;28;20072;-65
2022/10/09 08:03:03;;;;;;;5.50;3.67;;;;;;;24.03;43.24;95455.03;5028812;28;20565;-65
2022/10/09 08:05:28;;;;;;;5.45;3.70;;;;;;;23.46;43.09;95352.59;5041503;28;20048;-69
2022/10/09 08:07:54;;;;;;;5.85;4.03;;;;;;;24.17;42.75;95440.34;5038774;28;20045;-66
2022/10/09 08:10:19;;;;;;;4.57;3.90;;;;;;;24.25;42.47;95438.56;5041436;28;20041;-66
2022/10/09 08:12:45;;;;;;;4.85;3.78;;;;;;;24.17;43.02;95453.22;5028931;28;20111;-64
2022/10/09 08:15:11;;;;;;;4.75;3.72;;;;;;;23.45;42.50;95335.50;5035177;28;20124;-64
2022/10/09 08:17:37;;;;;;;5.93;3.72;;;;;;;23.84;42.72;95398.06;5027840;28;20041;-66
2022/10/09 08:20:03;;;;;;;5.15;3.60;;;;;;;23.25;42.98;95299.66;5046620;28;20505;-67
2022/10/09 08:22:28;;;;;;;6.28;4.30;;;;;;;23.42;42.89;95303.81;5032039;28;20114;-68
2022/10/09 08:24:54;;;;;;;7.45;5.20;;;;;;;23.96;42.06;95346.44;5030773;28;20040;-66
2022/10/09 08:27:19;;;;;;;6.30;4.95;;;;;;;23.66;41.43;95322.31;5027104;28;20241;-66
2022/10/09 08:29:45;;;;;;;10.93;5.18;;;;;;;24.50;41.24;95426.53;5045586;28;20041;-65
2022/10/09 08:32:10;;;;;;;8.63;6.38;;;;;;;24.01;41.28;95375.66;5036801;28;20049;-65
2022/10/09 08:34:36;;;;;;;7.80;5.32;;;;;;;23.73;41.23;95338.13;5023450;28;20041;-66
2022/10/09 08:37:01;;;;;;;7.70;5.25;;;;;;;23.48;41.72;95329.06;5024351;28;20674;-64
2022/10/09 08:39:29;;;;;;;8.57;4.82;;;;;;;24.14;41.82;95435.88;5032942;28;20059;-67
2022/10/09 08:41:56;;;;;;;8.13;5.13;;;;;;;23.46;41.71;95325.34;5039347;28;20095;-66
2022/10/09 08:44:45;;;;;;;10.45;4.68;;;;;;;24.12;41.75;95430.16;5023452;28;20076;-66
2022/10/09 08:47:33;;;;;;;6.47;4.27;;;;;;;23.51;41.66;95343.66;5041174;28;20029;-68
2022/10/09 08:50:07;;;;;;;6.28;3.83;;;;;;;23.52;41.96;95334.97;5022444;28;20120;-67
2022/10/09 08:53:02;;;;;;;6.00;4.47;;;;;;;24.03;41.94;95433.19;5035904;28;20049;-66
2022/10/09 08:55:28;;;;;;;7.20;4.03;;;;;;;24.05;41.65;95414.34;5037660;28;20055;-65
2022/10/09 08:58:00;;;;;;;5.20;4.13;;;;;;;23.34;41.73;95315.72;5039959;28;20033;-65
2022/10/09 09:00:36;;;;;;;6.55;3.70;;;;;;;23.31;41.36;95314.00;5042620;28;20044;-67
2022/10/09 09:03:31;;;;;;;4.80;3.88;;;;;;;23.89;41.70;95401.53;5035440;28;20041;-67
2022/10/09 09:06:03;;;;;;;5.10;4.38;;;;;;;23.99;41.61;95405.44;5053030;28;20034;-66
2022/10/09 09:08:41;;;;;;;5.68;3.97;;;;;;;23.95;41.90;95399.50;5058307;28;20103;-65
2022/10/09 09:11:44;;;;;;;6.30;4.47;;;;;;;23.90;42.00;95397.56;5036468;28;20075;-66
2022/10/09 09:14:09;;;;;;;6.35;4.20;;;;;;;23.94;41.69;95403.47;5043111;28;20127;-66
2022/10/09 09:16:40;;;;;;;4.97;4.25;;;;;;;23.13;41.54;95281.88;5031127;28;20121;-66
2022/10/09 09:19:40;;;;;;;4.63;3.63;;;;;;;23.52;41.81;95345.16;5034567;28;20013;-66
2022/10/09 09:22:11;;;;;;;5.38;3.78;;;;;;;23.90;42.25;95394.84;5023643;28;20068;-67
2022/10/09 09:25:12;;;;;;;6.03;4.07;;;;;;;23.22;41.42;95284.31;5026080;28;20030;-66
2022/10/09 09:27:37;;;;;;;5.68;3.92;;;;;;;23.94;41.72;95405.47;5032312;28;20496;-68
2022/10/09 09:30:05;;;;;;;4.50;3.78;;;;;;;22.99;41.35;95255.69;5038151;28;20037;-67
2022/10/09 09:32:31;;;;;;;5.40;3.95;;;;;;;23.88;41.47;95405.50;5037723;28;20512;-66
2022/10/09 09:35:14;;;;;;;6.85;4.47;;;;;;;23.59;41.68;95361.72;5042523;28;20061;-66
2022/10/09 09:37:40;;;;;;;4.15;3.55;;;;;;;23.84;41.52;95395.34;5032496;28;20566;-65
2022/10/09 09:40:07;;;;;;;6.35;3.90;;;;;;;23.47;41.47;95327.56;5043455;28;20094;-65
2022/10/09 09:42:33;;;;;;;7.97;4.00;;;;;;;23.88;41.90;95400.06;5041055;28;20021;-67
2022/10/09 09:45:01;;;;;;;5.78;3.67;;;;;;;23.93;42.12;95418.38;5030912;28;20543;-65
2022/10/09 09:47:35;;;;;;;7.25;3.90;;;;;;;23.66;41.63;95371.38;5037953;28;20120;-65
2022/10/09 09:50:02;;;;;;;5.55;4.05;;;;;;;23.25;41.88;95305.09;5027986;28;20044;-64
2022/10/09 09:52:29;;;;;;;5.55;3.60;;;;;;;23.80;41.97;95373.06;5026361;28;20146;-66
2022/10/09 09:54:56;;;;;;;8.23;4.20;;;;;;;23.35;41.78;95289.97;5043224;28;20191;-65
2022/10/09 09:57:35;;;;;;;4.35;3.92;;;;;;;24.10;41.47;95399.94;5030075;28;20025;-67
2022/10/09 10:00:16;;;;;;;5.45;3.75;;;;;;;24.13;41.76;95409.09;5017579;28;20040;-65
2022/10/09 10:02:41;;;;;;;4.85;3.47;;;;;;;23.52;41.60;95309.72;5028799;28;20041;-65
2022/10/09 10:05:34;;;;;;;6.00;3.95;;;;;;;24.16;41.35;95400.63;5036974;28;20037;-65
2022/10/09 10:07:59;;;;;;;5.50;3.60;;;;;;;22.25;41.68;95171.72;5025556;28;20041;-67
2022/10/09 10:10:25;;;;;;;6.22;3.60;;;;;;;23.66;41.11;95322.31;5030399;28;20095;-67
2022/10/09 10:12:50;;;;;;;5.65;3.80;;;;;;;24.18;41.66;95400.88;5042579;28;20032;-67
2022/10/09 10:15:22;;;;;;;5.20;3.60;;;;;;;24.19;41.83;95402.34;5036024;28;20021;-67
2022/10/09 10:17:48;;;;;;;4.85;3.47;;;;;;;24.18;41.65;95409.06;5033197;28;20096;-65
2022/10/09 10:20:15;;;;;;;4.95;3.28;;;;;;;23.66;41.37;95333.97;5032359;28;20509;-67
2022/10/09 10:22:40;;;;;;;6.13;3.58;;;;;;;23.41;41.23;95298.88;5063156;28;20358;-67
2022/10/09 10:25:08;;;;;;;5.25;3.70;;;;;;;24.05;41.49;95387.06;5024253;28;20025;-67
2022/10/09 10:27:40;;;;;;;5.25;3.70;;;;;;;24.08;41.48;95386.06;5032963;28;20096;-67
2022/10/09 10:30:10;;;;;;;5.43;4.00;;;;;;;23.84;41.41;95359.91;5059438;28;20044;-67
2022/10/09 10:32:39;;;;;;;7.10;3.88;;;;;;;24.18;41.50;95395.41;5039560;28;20111;-66
2022/10/09 10:35:10;;;;;;;5.72;3.63;;;;;;;23.45;41.52;95285.69;5029615;28;20456;-67
2022/10/09 10:37:54;;;;;;;4.50;3.50;;;;;;;24.20;41.27;95386.72;5051424;28;20048;-66
2022/10/09 10:40:29;;;;;;;5.82;3.78;;;;;;;24.20;41.13;95392.94;5027614;28;20049;-67
2022/10/09 10:43:10;;;;;;;4.38;3.35;;;;;;;24.21;41.10;95385.47;5023680;28;20045;-66
2022/10/09 10:45:59;;;;;;;4.97;3.80;;;;;;;24.21;40.84;95383.47;5026019;28;20038;-67
2022/10/09 10:48:29;;;;;;;5.32;3.58;;;;;;;23.22;41.28;95218.91;5024244;28;20511;-68
2022/10/09 10:51:01;;;;;;;6.53;3.70;;;;;;;24.23;40.69;95374.78;5030662;28;20041;-65
2022/10/09 10:53:34;;;;;;;4.57;3.63;;;;;;;24.18;41.39;95379.03;5039214;28;20051;-68
2022/10/09 10:56:06;;;;;;;6.55;4.00;;;;;;;24.18;41.35;95370.84;5022736;28;20033;-68
2022/10/09 10:59:13;;;;;;;6.03;4.22;;;;;;;23.98;41.37;95343.94;5037853;28;20457;-67
2022/10/09 11:02:03;;;;;;;5.30;3.90;;;;;;;24.20;40.85;95362.91;4961385;28;20305;-66
2022/10/09 11:05:11;;;;;;;5.30;4.03;;;;;;;23.40;40.83;95245.59;5020564;28;20033;-66
2022/10/09 11:08:08;;;;;;;5.82;3.55;;;;;;;23.27;41.20;95215.41;5028773;28;20116;-67
2022/10/09 11:10:36;;;;;;;5.55;3.90;;;;;;;24.26;40.92;95352.72;5033885;28;20064;-66
2022/10/09 11:13:10;;;;;;;5.65;3.90;;;;;;;24.27;40.69;95351.44;5049178;28;20025;-67
2022/10/09 11:15:44;;;;;;;7.05;3.90;;;;;;;24.16;40.99;95331.69;5031626;28;20040;-66
2022/10/09 11:18:28;;;;;;;5.07;3.58;;;;;;;24.24;40.72;95349.72;5025889;28;20065;-67
2022/10/09 11:21:27;;;;;;;6.03;3.90;;;;;;;23.73;40.62;95272.69;5031074;28;20052;-68
2022/10/09 11:24:14;;;;;;;7.43;4.18;;;;;;;23.66;40.52;95245.97;5013924;28;20533;-66
2022/10/09 11:27:04;;;;;;;6.05;3.97;;;;;;;24.33;41.25;95335.78;5035349;28;20643;-68
2022/10/09 11:29:40;;;;;;;7.70;3.88;;;;;;;23.85;40.49;95255.75;5034130;28;20033;-65
2022/10/09 11:32:18;;;;;;;7.63;4.25;;;;;;;24.24;40.07;95306.06;5024433;28;20060;-66
2022/10/09 11:34:56;;;;;;;9.05;3.80;;;;;;;24.18;40.76;95283.53;5030264;28;20045;-66
2022/10/09 11:37:26;;;;;;;5.10;3.55;;;;;;;23.70;40.59;95232.81;5022682;28;20049;-67
2022/10/09 11:39:51;;;;;;;6.15;4.03;;;;;;;24.01;40.44;95255.63;5024054;28;20029;-67
2022/10/09 11:42:20;;;;;;;6.80;3.75;;;;;;;24.40;40.18;95324.34;5037249;28;20034;-66
2022/10/09 11:44:59;;;;;;;5.72;3.60;;;;;;;24.53;40.16;95316.31;5031682;28;20102;-66